createdAt,value
2018-06-04T00:00:45.404Z,100825.43
2018-06-04T00:03:15.085Z,100820.30
2018-06-04T00:05:44.264Z,100822.95
2018-06-04T00:08:13.532Z,100826.07
2018-06-04T00:10:42.516Z,100833.34
2018-06-04T00:13:11.468Z,100827.27
2018-06-04T00:15:40.503Z,100826.59
2018-06-04T00:18:09.663Z,100825.22
2018-06-04T00:20:38.787Z,100820.50
2018-06-04T00:23:07.896Z,100815.12
2018-06-04T00:25:36.816Z,100816.69
2018-06-04T00:28:05.776Z,100819.77
2018-06-04T00:30:34.916Z,100821.59
2018-06-04T00:33:03.964Z,100816.69
2018-06-04T00:35:32.884Z,100812.86
2018-06-04T00:38:01.843Z,100805.17
2018-06-04T00:40:30.959Z,100807.30
2018-06-04T00:43:00.025Z,100806.70
2018-06-04T00:45:29.358Z,100809.03
2018-06-04T00:47:58.422Z,100813.02
2018-06-04T00:50:27.438Z,100809.88
2018-06-04T00:52:56.383Z,100799.96
2018-06-04T00:55:25.302Z,100800.80
2018-06-04T00:57:54.224Z,100796.89
2018-06-04T01:00:23.291Z,100790.25
2018-06-04T01:02:52.200Z,100792.78
2018-06-04T01:05:21.301Z,100789.84
2018-06-04T01:07:50.376Z,100796.48
2018-06-04T01:10:19.403Z,100795.12
2018-06-04T01:12:48.359Z,100792.85
2018-06-04T01:15:17.626Z,100788.06
2018-06-04T01:17:46.520Z,100785.50
2018-06-04T01:20:15.439Z,100788.38
2018-06-04T01:22:44.434Z,100782.44
2018-06-04T01:25:13.548Z,100779.96
2018-06-04T01:27:42.492Z,100777.01
2018-06-04T01:30:12.235Z,100778.69
2018-06-04T01:32:41.447Z,100778.64
2018-06-04T01:35:10.405Z,100771.47
2018-06-04T01:37:39.611Z,100776.02
2018-06-04T01:40:09.060Z,100776.53
2018-06-04T01:42:37.991Z,100770.69
2018-06-04T01:45:07.000Z,100771.86
2018-06-04T01:47:36.114Z,100764.00
2018-06-04T01:50:05.302Z,100766.84
2018-06-04T01:52:34.371Z,100768.22
2018-06-04T01:55:03.510Z,100766.02
2018-06-04T01:57:32.441Z,100763.30
2018-06-04T02:00:01.683Z,100764.04
2018-06-04T02:02:30.586Z,100763.30
2018-06-04T02:04:59.668Z,100768.47
2018-06-04T02:07:28.745Z,100773.34
2018-06-04T02:09:57.941Z,100764.62
2018-06-04T02:12:26.951Z,100765.79
2018-06-04T02:14:56.043Z,100770.31
2018-06-04T02:17:25.127Z,100768.87
2018-06-04T02:19:54.553Z,100769.20
2018-06-04T02:22:23.625Z,100764.42
2018-06-04T02:24:52.563Z,100765.59
2018-06-04T02:27:21.839Z,100760.28
2018-06-04T02:29:50.934Z,100764.83
2018-06-04T02:32:20.034Z,100764.34
2018-06-04T02:34:49.124Z,100770.17
2018-06-04T02:37:18.217Z,100764.50
2018-06-04T02:39:47.528Z,100771.31
2018-06-04T02:42:16.617Z,100772.86
2018-06-04T02:44:45.719Z,100773.28
2018-06-04T02:47:14.824Z,100772.82
2018-06-04T02:49:43.880Z,100766.73
2018-06-04T02:52:13.011Z,100764.22
2018-06-04T02:54:42.145Z,100761.02
2018-06-04T02:57:11.192Z,100767.58
2018-06-04T02:59:40.098Z,100763.23
2018-06-04T03:02:09.176Z,100761.90
2018-06-04T03:04:38.240Z,100757.33
2018-06-04T03:07:07.371Z,100759.59
2018-06-04T03:09:36.438Z,100758.54
2018-06-04T03:12:05.387Z,100757.89
2018-06-04T03:14:34.415Z,100756.78
2018-06-04T03:17:03.531Z,100760.79
2018-06-04T03:19:32.621Z,100750.09
2018-06-04T03:22:01.739Z,100755.08
2018-06-04T03:24:30.655Z,100756.06
2018-06-04T03:26:59.716Z,100762.55
2018-06-04T03:29:28.888Z,100759.59
2018-06-04T03:31:58.410Z,100762.95
2018-06-04T03:34:27.309Z,100766.33
2018-06-04T03:36:56.406Z,100770.48
2018-06-04T03:39:25.486Z,100766.95
2018-06-04T03:41:54.605Z,100762.26
2018-06-04T03:44:23.659Z,100758.94
2018-06-04T03:46:52.628Z,100760.95
2018-06-04T03:49:21.795Z,100763.63
2018-06-04T03:51:51.072Z,100760.11
2018-06-04T03:54:20.523Z,100754.56
2018-06-04T03:56:49.678Z,100758.38
2018-06-04T03:59:18.751Z,100753.88
2018-06-04T04:01:48.260Z,100750.19
2018-06-04T04:04:18.167Z,100747.84
2018-06-04T04:06:47.281Z,100746.56
2018-06-04T04:09:16.457Z,100747.39
2018-06-04T04:11:45.592Z,100748.36
2018-06-04T04:14:14.682Z,100751.40
2018-06-04T04:16:43.781Z,100749.54
2018-06-04T04:19:12.693Z,100746.86
2018-06-04T04:21:42.015Z,100740.99
2018-06-04T04:24:11.243Z,100741.41
2018-06-04T04:26:40.353Z,100739.72
2018-06-04T04:29:09.527Z,100738.06
2018-06-04T04:31:38.812Z,100738.71
2018-06-04T04:34:07.928Z,100738.71
2018-06-04T04:36:37.034Z,100739.27
2018-06-04T04:39:08.890Z,100739.20
2018-06-04T04:41:37.999Z,100738.08
2018-06-04T04:44:07.072Z,100740.26
2018-06-04T04:46:36.191Z,100739.41
2018-06-04T04:49:05.563Z,100743.34
2018-06-04T04:51:34.740Z,100739.81
2018-06-04T04:54:03.864Z,100736.69
2018-06-04T04:56:33.076Z,100739.69
2018-06-04T04:59:05.536Z,100734.07
2018-06-04T05:01:34.659Z,100742.19
2018-06-04T05:04:04.318Z,100740.08
2018-06-04T05:06:33.511Z,100737.08
2018-06-04T05:09:04.548Z,100741.50
2018-06-04T05:11:33.707Z,100739.73
2018-06-04T05:14:02.644Z,100736.05
2018-06-04T05:16:31.908Z,100740.56
2018-06-04T05:19:04.155Z,100747.66
2018-06-04T05:21:33.247Z,100743.61
2018-06-04T05:24:02.342Z,100747.48
2018-06-04T05:26:31.473Z,100741.56
2018-06-04T05:29:04.923Z,100749.73
2018-06-04T05:31:34.151Z,100742.75
2018-06-04T05:34:03.249Z,100743.99
2018-06-04T05:36:32.523Z,100739.25
2018-06-04T05:39:03.133Z,100736.04
2018-06-04T05:41:32.747Z,100739.26
2018-06-04T05:44:01.879Z,100732.80
2018-06-04T05:46:32.385Z,100730.92
2018-06-04T05:49:05.907Z,100730.11
2018-06-04T05:51:34.967Z,100730.57
2018-06-04T05:54:04.089Z,100730.88
2018-06-04T05:56:34.036Z,100734.09
2018-06-04T05:59:04.239Z,100738.55
2018-06-04T06:01:33.179Z,100738.22
2018-06-04T06:04:02.410Z,100726.14
2018-06-04T06:06:31.715Z,100724.75
2018-06-04T06:09:06.805Z,100725.80
2018-06-04T06:11:36.038Z,100723.88
2018-06-04T06:14:05.800Z,100716.86
2018-06-04T06:16:35.080Z,100711.33
2018-06-04T06:19:04.459Z,100703.45
2018-06-04T06:21:33.532Z,100702.35
2018-06-04T06:24:02.880Z,100698.52
2018-06-04T06:26:31.927Z,100701.42
2018-06-04T06:29:04.732Z,100696.37
2018-06-04T06:31:33.887Z,100690.47
2018-06-04T06:34:02.993Z,100692.70
2018-06-04T06:36:32.224Z,100692.38
2018-06-04T06:39:06.589Z,100684.35
2018-06-04T06:41:36.126Z,100678.62
2018-06-04T06:44:05.239Z,100684.30
2018-06-04T06:46:34.166Z,100686.66
2018-06-04T06:49:03.986Z,100679.66
2018-06-04T06:51:33.035Z,100678.41
2018-06-04T06:54:02.141Z,100677.89
2018-06-04T06:56:32.468Z,100683.86
2018-06-04T06:59:04.599Z,100679.83
2018-06-04T07:01:33.865Z,100683.73
2018-06-04T07:04:03.154Z,100672.48
2018-06-04T07:06:32.201Z,100665.66
2018-06-04T07:09:08.244Z,100664.84
2018-06-04T07:11:37.358Z,100669.27
2018-06-04T07:14:06.635Z,100660.38
2018-06-04T07:16:35.768Z,100658.98
2018-06-04T07:19:04.798Z,100653.05
2018-06-04T07:21:34.055Z,100652.56
2018-06-04T07:24:03.147Z,100649.72
2018-06-04T07:26:32.083Z,100659.81
2018-06-04T07:29:05.263Z,100652.34
2018-06-04T07:31:34.488Z,100649.08
2018-06-04T07:34:03.531Z,100646.96
2018-06-04T07:36:32.724Z,100640.83
2018-06-04T07:39:03.583Z,100638.31
2018-06-04T07:41:32.956Z,100648.13
2018-06-04T07:44:02.075Z,100639.45
2018-06-04T07:46:30.998Z,100637.37
2018-06-04T07:49:03.884Z,100634.12
2018-06-04T07:51:32.929Z,100631.78
2018-06-04T07:54:02.033Z,100628.64
2018-06-04T07:56:31.111Z,100633.13
2018-06-04T07:59:04.443Z,100633.05
2018-06-04T08:01:33.547Z,100632.55
2018-06-04T08:04:02.604Z,100624.22
2018-06-04T08:06:32.145Z,100626.74
2018-06-04T08:09:03.066Z,100627.88
2018-06-04T08:11:32.239Z,100620.17
2018-06-04T08:14:01.171Z,100619.41
2018-06-04T08:16:30.253Z,100615.01
2018-06-04T08:19:02.465Z,100617.20
2018-06-04T08:21:31.730Z,100610.27
2018-06-04T08:24:01.267Z,100609.41
2018-06-04T08:26:31.007Z,100604.88
2018-06-04T08:29:03.198Z,100601.83
2018-06-04T08:31:32.475Z,100602.95
2018-06-04T08:34:02.671Z,100597.21
2018-06-04T08:36:31.951Z,100598.02
2018-06-04T08:39:08.105Z,100592.81
2018-06-04T08:41:37.143Z,100583.16
2018-06-04T08:44:06.255Z,100580.42
2018-06-04T08:46:35.331Z,100582.27
2018-06-04T08:49:04.540Z,100580.45
2018-06-04T08:51:33.633Z,100579.08
2018-06-04T08:54:02.578Z,100577.70
2018-06-04T08:56:31.825Z,100576.84
2018-06-04T08:59:04.219Z,100576.36
2018-06-04T09:01:33.475Z,100577.41
2018-06-04T09:04:02.629Z,100580.69
2018-06-04T09:06:31.691Z,100583.80
2018-06-04T09:09:06.543Z,100577.42
2018-06-04T09:11:36.217Z,100581.72
2018-06-04T09:14:05.194Z,100583.73
2018-06-04T09:16:34.439Z,100570.51
2018-06-04T09:19:03.823Z,100564.02
2018-06-04T09:21:32.773Z,100573.47
2018-06-04T09:24:01.996Z,100569.75
2018-06-04T09:26:30.943Z,100569.99
2018-06-04T09:29:04.919Z,100562.58
2018-06-04T09:31:36.863Z,100566.04
2018-06-04T09:34:05.998Z,100567.87
2018-06-04T09:36:35.107Z,100571.30
2018-06-04T09:39:05.495Z,100565.38
2018-06-04T09:41:34.822Z,100570.45
2018-06-04T09:44:04.128Z,100568.06
2018-06-04T09:46:33.390Z,100561.81
2018-06-04T09:49:04.279Z,100560.65
2018-06-04T09:51:33.324Z,100556.83
2018-06-04T09:54:02.311Z,100556.88
2018-06-04T09:56:31.325Z,100552.58
2018-06-04T09:59:03.984Z,100554.66
2018-06-04T10:01:33.080Z,100548.21
2018-06-04T10:04:02.169Z,100547.41
2018-06-04T10:06:31.367Z,100546.66
2018-06-04T10:09:06.606Z,100540.41
2018-06-04T10:11:35.716Z,100537.06
2018-06-04T10:14:05.263Z,100547.42
2018-06-04T10:16:34.548Z,100543.23
2018-06-04T10:19:04.709Z,100534.34
2018-06-04T10:21:33.855Z,100531.66
2018-06-04T10:24:02.766Z,100531.42
2018-06-04T10:26:32.039Z,100538.79
2018-06-04T10:29:02.852Z,100539.64
2018-06-04T10:31:32.178Z,100540.80
2018-06-04T10:34:01.248Z,100527.73
2018-06-04T10:36:30.356Z,100532.13
2018-06-04T10:39:03.413Z,100531.09
2018-06-04T10:41:33.056Z,100527.12
2018-06-04T10:44:01.996Z,100524.64
2018-06-04T10:46:31.747Z,100528.62
2018-06-04T10:49:02.768Z,100525.64
2018-06-04T10:51:31.965Z,100525.65
2018-06-04T10:54:01.007Z,100535.11
2018-06-04T10:56:31.100Z,100532.41
2018-06-04T10:59:03.912Z,100529.91
2018-06-04T11:01:32.980Z,100538.05
2018-06-04T11:04:01.900Z,100534.90
2018-06-04T11:06:31.195Z,100529.47
2018-06-04T11:09:06.649Z,100528.06
2018-06-04T11:11:35.918Z,100522.18
2018-06-04T11:14:05.061Z,100517.74
2018-06-04T11:16:34.643Z,100514.63
2018-06-04T11:19:03.834Z,100514.91
2018-06-04T11:21:32.918Z,100507.45
2018-06-04T11:24:01.995Z,100508.06
2018-06-04T11:26:31.308Z,100502.58
2018-06-04T11:29:04.498Z,100506.47
2018-06-04T11:31:33.588Z,100500.70
2018-06-04T11:34:02.662Z,100501.11
2018-06-04T11:36:31.702Z,100500.34
2018-06-04T11:39:05.775Z,100497.32
2018-06-04T11:41:34.890Z,100496.55
2018-06-04T11:44:04.031Z,100497.31
2018-06-04T11:46:33.071Z,100494.01
2018-06-04T11:49:04.611Z,100498.79
2018-06-04T11:51:33.732Z,100485.77
2018-06-04T11:54:02.804Z,100489.83
2018-06-04T11:56:32.011Z,100485.77
2018-06-04T11:59:04.300Z,100487.69
2018-06-04T12:01:33.383Z,100487.11
2018-06-04T12:04:02.652Z,100486.95
2018-06-04T12:06:31.779Z,100478.36
2018-06-04T12:09:02.741Z,100478.52
2018-06-04T12:11:32.051Z,100479.75
2018-06-04T12:14:01.093Z,100486.52
2018-06-04T12:16:30.275Z,100480.56
2018-06-04T12:19:02.838Z,100483.76
2018-06-04T12:21:31.988Z,100477.34
2018-06-04T12:24:01.070Z,100473.81
2018-06-04T12:26:30.026Z,100480.56
2018-06-04T12:29:02.841Z,100467.34
2018-06-04T12:31:32.051Z,100470.73
2018-06-04T12:34:01.159Z,100465.12
2018-06-04T12:36:30.256Z,100462.53
2018-06-04T12:39:02.509Z,100464.00
2018-06-04T12:41:31.430Z,100458.64
2018-06-04T12:44:00.930Z,100458.19
2018-06-04T12:46:29.996Z,100453.68
2018-06-04T12:49:02.875Z,100460.20
2018-06-04T12:51:32.391Z,100457.92
2018-06-04T12:54:01.901Z,100460.34
2018-06-04T12:56:31.900Z,100451.27
2018-06-04T12:59:04.491Z,100447.63
2018-06-04T13:01:33.479Z,100448.44
2018-06-04T13:04:02.852Z,100446.55
2018-06-04T13:06:31.906Z,100444.37
2018-06-04T13:09:06.289Z,100443.22
2018-06-04T13:11:35.336Z,100439.48
2018-06-04T13:14:04.672Z,100434.34
2018-06-04T13:16:33.606Z,100431.18
2018-06-04T13:19:03.398Z,100428.64
2018-06-04T13:21:32.503Z,100423.97
2018-06-04T13:24:01.429Z,100424.95
2018-06-04T13:26:30.482Z,100424.09
2018-06-04T13:29:03.236Z,100416.44
2018-06-04T13:31:32.204Z,100410.01
2018-06-04T13:34:01.174Z,100409.95
2018-06-04T13:36:30.080Z,100397.91
2018-06-04T13:39:02.028Z,100398.72
2018-06-04T13:41:30.971Z,100405.70
2018-06-04T13:43:59.921Z,100404.03
2018-06-04T13:46:28.866Z,100391.27
2018-06-04T13:49:01.940Z,100400.87
2018-06-04T13:51:31.162Z,100389.27
2018-06-04T13:54:00.324Z,100391.94
2018-06-04T13:56:29.577Z,100392.61
2018-06-04T13:59:01.763Z,100386.00
2018-06-04T14:01:31.743Z,100375.59
2018-06-04T14:04:00.935Z,100379.91
2018-06-04T14:06:29.835Z,100375.85
2018-06-04T14:09:01.885Z,100373.52
2018-06-04T14:11:30.820Z,100372.78
2018-06-04T14:13:59.841Z,100379.18
2018-06-04T14:16:28.777Z,100368.28
2018-06-04T14:19:02.544Z,100370.63
2018-06-04T14:21:31.469Z,100372.80
2018-06-04T14:24:00.391Z,100366.03
2018-06-04T14:26:29.284Z,100372.55
2018-06-04T14:28:59.794Z,100360.74
2018-06-04T14:31:31.738Z,100364.83
2018-06-04T14:34:00.675Z,100360.10
2018-06-04T14:36:29.926Z,100363.86
2018-06-04T14:39:06.063Z,100365.27
2018-06-04T14:41:35.207Z,100359.36
2018-06-04T14:44:04.166Z,100351.75
2018-06-04T14:46:33.120Z,100348.90
2018-06-04T14:49:03.565Z,100351.78
2018-06-04T14:51:32.519Z,100350.36
2018-06-04T14:54:01.521Z,100348.27
2018-06-04T14:56:30.514Z,100347.47
2018-06-04T14:59:03.025Z,100340.16
2018-06-04T15:01:32.277Z,100332.52
2018-06-04T15:04:01.250Z,100324.41
2018-06-04T15:06:30.221Z,100327.38
2018-06-04T15:09:02.275Z,100320.43
2018-06-04T15:11:31.226Z,100321.69
2018-06-04T15:14:00.215Z,100323.91
2018-06-04T15:16:29.198Z,100325.12
2018-06-04T15:19:01.345Z,100311.36
2018-06-04T15:21:30.532Z,100306.20
2018-06-04T15:24:00.099Z,100310.22
2018-06-04T15:26:29.111Z,100308.04
2018-06-04T15:29:02.813Z,100298.16
2018-06-04T15:31:31.754Z,100304.27
2018-06-04T15:34:00.740Z,100307.66
2018-06-04T15:36:29.653Z,100302.80
2018-06-04T15:39:02.238Z,100301.08
2018-06-04T15:41:31.501Z,100299.92
2018-06-04T15:44:00.471Z,100290.19
2018-06-04T15:46:29.412Z,100297.70
2018-06-04T15:48:58.465Z,100292.36
2018-06-04T15:51:27.603Z,100287.94
2018-06-04T15:53:56.858Z,100292.47
2018-06-04T15:56:25.770Z,100287.47
2018-06-04T15:58:54.696Z,100286.49
2018-06-04T16:01:24.929Z,100280.09
2018-06-04T16:03:54.072Z,100281.24
2018-06-04T16:06:23.306Z,100278.72
2018-06-04T16:08:52.617Z,100275.88
2018-06-04T16:11:21.593Z,100275.53
2018-06-04T16:13:50.530Z,100272.75
2018-06-04T16:16:19.566Z,100278.02
2018-06-04T16:18:48.623Z,100274.16
2018-06-04T16:21:17.751Z,100264.63
2018-06-04T16:23:47.445Z,100262.38
2018-06-04T16:26:16.511Z,100266.25
2018-06-04T16:28:45.419Z,100269.91
2018-06-04T16:31:14.439Z,100266.55
2018-06-04T16:33:44.143Z,100267.07
2018-06-04T16:36:13.084Z,100267.80
2018-06-04T16:38:42.062Z,100265.54
2018-06-04T16:41:11.243Z,100272.74
2018-06-04T16:43:40.319Z,100265.02
2018-06-04T16:46:09.301Z,100265.48
2018-06-04T16:48:38.243Z,100263.75
2018-06-04T16:51:07.615Z,100258.24
2018-06-04T16:53:36.549Z,100268.61
2018-06-04T16:56:05.546Z,100261.79
2018-06-04T16:58:34.458Z,100259.17
2018-06-04T17:01:03.429Z,100266.91
2018-06-04T17:03:32.554Z,100256.98
2018-06-04T17:06:01.491Z,100253.91
2018-06-04T17:08:30.568Z,100253.13
2018-06-04T17:10:59.511Z,100250.27
2018-06-04T17:13:28.734Z,100252.47
2018-06-04T17:15:57.720Z,100253.87
2018-06-04T17:18:26.763Z,100248.43
2018-06-04T17:20:55.740Z,100250.13
2018-06-04T17:23:24.703Z,100254.02
2018-06-04T17:25:54.377Z,100248.05
2018-06-04T17:28:23.490Z,100249.34
2018-06-04T17:30:52.786Z,100256.25
2018-06-04T17:33:21.714Z,100252.31
2018-06-04T17:35:50.993Z,100255.98
2018-06-04T17:38:20.297Z,100257.11
2018-06-04T17:40:49.551Z,100263.63
2018-06-04T17:43:18.775Z,100262.55
2018-06-04T17:45:48.308Z,100264.52
2018-06-04T17:48:17.399Z,100268.52
2018-06-04T17:50:46.603Z,100273.58
2018-06-04T17:53:15.690Z,100268.43
2018-06-04T17:55:44.628Z,100274.37
2018-06-04T17:58:13.546Z,100276.23
2018-06-04T18:00:42.682Z,100276.62
2018-06-04T18:03:12.027Z,100278.34
2018-06-04T18:05:41.483Z,100286.45
2018-06-04T18:08:10.970Z,100289.50
2018-06-04T18:10:40.187Z,100289.50
2018-06-04T18:13:09.299Z,100291.23
2018-06-04T18:15:38.371Z,100289.83
2018-06-04T18:18:07.883Z,100295.38
2018-06-04T18:20:37.079Z,100297.13
2018-06-04T18:23:06.586Z,100293.16
2018-06-04T18:25:35.668Z,100292.66
2018-06-04T18:28:04.778Z,100300.33
2018-06-04T18:30:33.954Z,100304.23
2018-06-04T18:33:03.067Z,100309.19
2018-06-04T18:35:32.348Z,100307.56
2018-06-04T18:38:01.470Z,100303.12
2018-06-04T18:40:30.559Z,100310.14
2018-06-04T18:42:59.667Z,100314.47
2018-06-04T18:45:28.946Z,100308.31
2018-06-04T18:47:58.103Z,100323.16
2018-06-04T18:50:27.638Z,100318.69
2018-06-04T18:52:56.786Z,100331.33
2018-06-04T18:55:26.046Z,100334.03
2018-06-04T18:57:55.924Z,100339.16
2018-06-04T20:27:04.267Z,100460.14
2018-06-04T20:29:33.948Z,100463.19
2018-06-04T20:32:03.119Z,100466.26
2018-06-04T20:34:32.139Z,100462.33
2018-06-04T20:37:01.392Z,100461.08
2018-06-04T20:39:30.351Z,100464.37
2018-06-04T20:41:59.689Z,100464.83
2018-06-04T20:44:28.907Z,100470.68
2018-06-04T20:46:57.865Z,100475.53
2018-06-04T20:49:26.798Z,100476.67
2018-06-04T20:51:55.723Z,100481.39
2018-06-04T20:54:24.779Z,100480.38
2018-06-04T20:56:53.730Z,100485.05
2018-06-04T20:59:22.691Z,100482.55
2018-06-04T21:01:52.034Z,100487.80
2018-06-04T21:04:21.025Z,100491.47
2018-06-04T21:06:49.956Z,100498.94
2018-06-04T21:09:18.895Z,100500.29
2018-06-04T21:11:48.083Z,100495.94
2018-06-04T21:14:18.223Z,100500.53
2018-06-04T21:16:47.151Z,100501.33
2018-06-04T21:19:16.357Z,100502.34
2018-06-04T21:21:45.701Z,100499.58
2018-06-04T21:24:14.967Z,100503.03
2018-06-04T21:26:44.878Z,100498.67
2018-06-04T21:29:13.977Z,100499.62
2018-06-04T21:31:43.167Z,100497.27
2018-06-04T21:34:12.288Z,100494.77
2018-06-04T21:36:41.222Z,100497.61
2018-06-04T21:39:10.517Z,100507.69
2018-06-04T21:41:39.752Z,100503.00
2018-06-04T21:44:08.702Z,100505.29
2018-06-04T21:46:37.663Z,100502.80
2018-06-04T21:49:06.879Z,100502.39
2018-06-04T21:51:36.033Z,100496.08
2018-06-04T21:54:05.129Z,100498.03
2018-06-04T21:56:34.243Z,100500.42
2018-06-04T21:59:03.539Z,100505.20
2018-06-04T22:01:32.838Z,100498.56
2018-06-04T22:04:01.950Z,100504.87
2018-06-04T22:06:30.990Z,100498.25
2018-06-04T22:09:00.092Z,100494.55
2018-06-04T22:11:29.509Z,100500.85
2018-06-04T22:13:58.774Z,100502.09
2018-06-04T22:16:28.086Z,100497.45
2018-06-04T22:18:57.182Z,100494.23
2018-06-04T22:21:26.566Z,100496.93
2018-06-04T22:23:55.781Z,100498.48
2018-06-04T22:26:24.944Z,100499.62
2018-06-04T22:28:54.197Z,100501.70
2018-06-04T22:31:23.418Z,100503.16
2018-06-04T22:33:52.670Z,100507.72
2018-06-04T22:36:21.655Z,100503.47
2018-06-04T22:38:50.859Z,100508.66
2018-06-04T22:41:19.778Z,100506.89
2018-06-04T22:43:49.050Z,100504.07
2018-06-04T22:46:18.185Z,100498.80
2018-06-04T22:48:47.103Z,100500.38
2018-06-04T22:51:16.460Z,100494.75
2018-06-04T22:53:45.559Z,100497.86
2018-06-04T22:56:14.643Z,100497.95
2018-06-04T22:58:43.558Z,100508.63
2018-06-04T23:01:12.634Z,100499.47
2018-06-04T23:03:41.728Z,100496.88
2018-06-04T23:06:11.028Z,100501.85
2018-06-04T23:08:40.555Z,100497.28
2018-06-04T23:11:09.627Z,100494.47
2018-06-04T23:13:38.732Z,100497.50
2018-06-04T23:16:07.823Z,100497.70
2018-06-04T23:18:36.807Z,100502.97
2018-06-04T23:21:05.933Z,100508.39
2018-06-04T23:23:35.029Z,100499.20
2018-06-04T23:26:04.144Z,100500.12
2018-06-04T23:28:33.394Z,100499.09
2018-06-04T23:31:02.536Z,100502.77
2018-06-04T23:33:31.991Z,100501.11
2018-06-04T23:36:01.112Z,100511.86
2018-06-04T23:38:30.177Z,100515.11
2018-06-04T23:40:59.401Z,100209.95
2018-06-04T23:43:28.357Z,100522.63
2018-06-04T23:45:57.334Z,100515.00
2018-06-04T23:48:26.278Z,100513.98
2018-06-04T23:50:55.575Z,100507.84
2018-06-04T23:53:24.710Z,100504.77
2018-06-04T23:55:54.830Z,100509.33
2018-06-04T23:58:24.077Z,100504.57
